Big Bear Station Historical Data
Daily Summary for February 23, 2019 Units:  Both    English   Metric
Next Day »
Daily Weekly Monthly Yearly Custom
  High: Low: Average:
Temperature: 41.2 °F /  5.1 °C -4.0 °F /  -20 °C 17.1 °F /  -8.3 °C
Dew Point: 23.3 °F /  -4.8 °C -6.2 °F /  -21.2 °C 10.7 °F /  -11.8 °C
Humidity: 94% 34% 79%
Wind Speed: 7.3mph /  11.7km/h - 0.9mph /  1.4km/h
Wind Gust: -999.0mph /  -1607.7km/h - -
Wind- - WNW
Pressure: 23.57 in /  798.1 hPa 23.47 in /  794.7 hPa -
Precipitation: 0.07 in /  1.78 mm    
Historical Graphs
 
 
Tabular Data for February 23, 2019
Time Temperature Dew Point Pressure Wind Wind Speed Wind Gust Humidity Rainfall Rate (Hourly)
00:03 2.3 °F /  -16.5 °C 0.7 °F /  -17.4 °C 23.47in /  794.7hPa Calm   -999.0mph /  -1607.7km/h 93% 0.00in /  0mm
00:18 1.8 °F /  -16.8 °C 0.0 °F /  -17.8 °C 23.47in /  794.7hPa Calm   -999.0mph /  -1607.7km/h 92% 0.00in /  0mm
00:34 1.4 °F /  -17 °C -0.4 °F /  -18 °C 23.47in /  794.7hPa Calm   -999.0mph /  -1607.7km/h 92% 0.00in /  0mm
00:49 1.4 °F /  -17 °C 0.1 °F /  -17.7 °C 23.48in /  795hPa Calm   -999.0mph /  -1607.7km/h 94% 0.00in /  0mm
01:05 0.9 °F /  -17.3 °C -0.9 °F /  -18.3 °C 23.48in /  795hPa Calm   -999.0mph /  -1607.7km/h 92% 0.00in /  0mm
01:20 0.9 °F /  -17.3 °C -0.9 °F /  -18.3 °C 23.48in /  795hPa Calm   -999.0mph /  -1607.7km/h 92% 0.00in /  0mm
01:35 1.0 °F /  -17.2 °C -0.5 °F /  -18.1 °C 23.49in /  795.4hPa Calm   -999.0mph /  -1607.7km/h 93% 0.00in /  0mm
01:50 -0.2 °F /  -17.9 °C -2.0 °F /  -18.9 °C 23.49in /  795.4hPa Calm   -999.0mph /  -1607.7km/h 92% 0.00in /  0mm
02:05 -0.6 °F /  -18.1 °C -2.4 °F /  -19.1 °C 23.49in /  795.4hPa Calm   -999.0mph /  -1607.7km/h 92% 0.00in /  0mm
02:21 -1.3 °F /  -18.5 °C -3.1 °F /  -19.5 °C 23.49in /  795.4hPa Calm   -999.0mph /  -1607.7km/h 92% 0.00in /  0mm
02:36 -1.8 °F /  -18.8 °C -3.6 °F /  -19.8 °C 23.49in /  795.4hPa Calm   -999.0mph /  -1607.7km/h 92% 0.00in /  0mm
02:51 -1.3 °F /  -18.5 °C -2.8 °F /  -19.3 °C 23.49in /  795.4hPa Calm   -999.0mph /  -1607.7km/h 93% 0.00in /  0mm
03:06 -1.8 °F /  -18.8 °C -3.6 °F /  -19.8 °C 23.50in /  795.7hPa Calm   -999.0mph /  -1607.7km/h 92% 0.00in /  0mm
03:21 -2.2 °F /  -19 °C -4.2 °F /  -20.1 °C 23.49in /  795.4hPa Calm   -999.0mph /  -1607.7km/h 91% 0.00in /  0mm
03:37 -2.4 °F /  -19.1 °C -4.1 °F /  -20.1 °C 23.50in /  795.7hPa Calm   -999.0mph /  -1607.7km/h 92% 0.00in /  0mm
03:52 -2.9 °F /  -19.4 °C -4.6 °F /  -20.3 °C 23.50in /  795.7hPa Calm   -999.0mph /  -1607.7km/h 92% 0.00in /  0mm
04:07 -3.3 °F /  -19.6 °C -5.3 °F /  -20.7 °C 23.50in /  795.7hPa Calm   -999.0mph /  -1607.7km/h 91% 0.00in /  0mm
04:22 -3.1 °F /  -19.5 °C -4.8 °F /  -20.4 °C 23.50in /  795.7hPa Calm   -999.0mph /  -1607.7km/h 92% 0.00in /  0mm
04:37 -2.9 °F /  -19.4 °C -4.6 °F /  -20.3 °C 23.50in /  795.7hPa Calm   -999.0mph /  -1607.7km/h 92% 0.00in /  0mm
04:53 -3.5 °F /  -19.7 °C -5.5 °F /  -20.8 °C 23.51in /  796hPa Calm   -999.0mph /  -1607.7km/h 91% 0.00in /  0mm
05:08 -3.5 °F /  -19.7 °C -5.2 °F /  -20.7 °C 23.51in /  796hPa Calm   -999.0mph /  -1607.7km/h 92% 0.00in /  0mm
05:23 -3.6 °F /  -19.8 °C -5.6 °F /  -20.9 °C 23.51in /  796hPa Calm   -999.0mph /  -1607.7km/h 91% 0.00in /  0mm
05:38 -3.6 °F /  -19.8 °C -5.6 °F /  -20.9 °C 23.52in /  796.4hPa Calm   -999.0mph /  -1607.7km/h 91% 0.00in /  0mm
05:54 -3.8 °F /  -19.9 °C -5.8 °F /  -21 °C 23.52in /  796.4hPa Calm   -999.0mph /  -1607.7km/h 91% 0.00in /  0mm
06:09 -3.6 °F /  -19.8 °C -5.6 °F /  -20.9 °C 23.52in /  796.4hPa Calm   -999.0mph /  -1607.7km/h 91% 0.00in /  0mm
06:24 -4.0 °F /  -20 °C -6.0 °F /  -21.1 °C 23.53in /  796.7hPa Calm   -999.0mph /  -1607.7km/h 91% 0.00in /  0mm
06:39 -3.8 °F /  -19.9 °C -5.8 °F /  -21 °C 23.53in /  796.7hPa Calm   -999.0mph /  -1607.7km/h 91% 0.00in /  0mm
06:54 -4.0 °F /  -20 °C -6.2 °F /  -21.2 °C 23.53in /  796.7hPa Calm   -999.0mph /  -1607.7km/h 90% 0.00in /  0mm
07:10 -3.6 °F /  -19.8 °C -5.6 °F /  -20.9 °C 23.54in /  797.1hPa Calm   -999.0mph /  -1607.7km/h 91% 0.00in /  0mm
07:25 -2.9 °F /  -19.4 °C -4.9 °F /  -20.5 °C 23.54in /  797.1hPa Calm   -999.0mph /  -1607.7km/h 91% 0.00in /  0mm
07:40 -2.6 °F /  -19.2 °C -4.6 °F /  -20.3 °C 23.54in /  797.1hPa Calm   -999.0mph /  -1607.7km/h 91% 0.00in /  0mm
07:55 -0.4 °F /  -18 °C -2.2 °F /  -19 °C 23.55in /  797.4hPa Calm   -999.0mph /  -1607.7km/h 92% 0.00in /  0mm
08:10 0.5 °F /  -17.5 °C -1.3 °F /  -18.5 °C 23.55in /  797.4hPa Calm   -999.0mph /  -1607.7km/h 92% 0.00in /  0mm
08:26 1.9 °F /  -16.7 °C 0.1 °F /  -17.7 °C 23.56in /  797.7hPa Calm   -999.0mph /  -1607.7km/h 92% 0.00in /  0mm
08:41 3.2 °F /  -16 °C 1.4 °F /  -17 °C 23.56in /  797.7hPa Calm   -999.0mph /  -1607.7km/h 92% 0.00in /  0mm
08:56 5.9 °F /  -14.5 °C 4.3 °F /  -15.4 °C 23.56in /  797.7hPa Calm   -999.0mph /  -1607.7km/h 93% 0.00in /  0mm
09:11 9.0 °F /  -12.8 °C 7.4 °F /  -13.7 °C 23.56in /  797.7hPa Calm   -999.0mph /  -1607.7km/h 93% 0.00in /  0mm
09:26 11.5 °F /  -11.4 °C 9.9 °F /  -12.3 °C 23.56in /  797.7hPa Calm   -999.0mph /  -1607.7km/h 93% 0.00in /  0mm
09:42 14.5 °F /  -9.7 °C 12.6 °F /  -10.8 °C 23.56in /  797.7hPa Calm   -999.0mph /  -1607.7km/h 92% 0.00in /  0mm
09:57 19.0 °F /  -7.2 °C 17.1 °F /  -8.3 °C 23.56in /  797.7hPa Calm   -999.0mph /  -1607.7km/h 92% 0.00in /  0mm
10:12 24.3 °F /  -4.3 °C 20.2 °F /  -6.6 °C 23.56in /  797.7hPa Calm   -999.0mph /  -1607.7km/h 84% 0.00in /  0mm
10:27 29.8 °F /  -1.2 °C 17.2 °F /  -8.2 °C 23.56in /  797.7hPa Calm   -999.0mph /  -1607.7km/h 59% 0.00in /  0mm
10:42 33.4 °F /  0.8 °C 13.3 °F /  -10.4 °C 23.56in /  797.7hPa NW 2.2mph /  3.5km/h -999.0mph /  -1607.7km/h 43% 0.00in /  0mm
10:58 36.7 °F /  2.6 °C 10.9 °F /  -11.7 °C 23.56in /  797.7hPa NNW 7.3mph /  11.7km/h -999.0mph /  -1607.7km/h 34% 0.00in /  0mm
11:13 37.8 °F /  3.2 °C 13.2 °F /  -10.4 °C 23.56in /  797.7hPa North 5.3mph /  8.5km/h -999.0mph /  -1607.7km/h 36% 0.00in /  0mm
11:28 37.6 °F /  3.1 °C 14.3 °F /  -9.8 °C 23.55in /  797.4hPa NNW 4.7mph /  7.6km/h -999.0mph /  -1607.7km/h 38% 0.00in /  0mm
11:44 38.3 °F /  3.5 °C 16.1 °F /  -8.8 °C 23.55in /  797.4hPa NW 3.7mph /  6km/h -999.0mph /  -1607.7km/h 40% 0.00in /  0mm
11:59 38.3 °F /  3.5 °C 16.6 °F /  -8.6 °C 23.55in /  797.4hPa South 2.2mph /  3.5km/h -999.0mph /  -1607.7km/h 41% 0.00in /  0mm
12:14 38.5 °F /  3.6 °C 17.9 °F /  -7.8 °C 23.55in /  797.4hPa WNW 3.2mph /  5.1km/h -999.0mph /  -1607.7km/h 43% 0.00in /  0mm
12:30 39.7 °F /  4.3 °C 19.0 °F /  -7.2 °C 23.54in /  797.1hPa ENE 2.7mph /  4.3km/h -999.0mph /  -1607.7km/h 43% 0.00in /  0mm
12:45 41.2 °F /  5.1 °C 19.8 °F /  -6.8 °C 23.54in /  797.1hPa WSW 1.7mph /  2.7km/h -999.0mph /  -1607.7km/h 42% 0.00in /  0mm
13:00 39.0 °F /  3.9 °C 20.0 °F /  -6.7 °C 23.54in /  797.1hPa NNW 4.2mph /  6.8km/h -999.0mph /  -1607.7km/h 46% 0.00in /  0mm
13:15 36.5 °F /  2.5 °C 21.0 °F /  -6.1 °C 23.53in /  796.7hPa NW 4.2mph /  6.8km/h -999.0mph /  -1607.7km/h 53% 0.00in /  0mm
13:31 35.6 °F /  2 °C 20.1 °F /  -6.6 °C 23.54in /  797.1hPa WNW 4.2mph /  6.8km/h -999.0mph /  -1607.7km/h 53% 0.00in /  0mm
13:46 35.6 °F /  2 °C 19.7 °F /  -6.8 °C 23.54in /  797.1hPa NW 3.2mph /  5.1km/h -999.0mph /  -1607.7km/h 52% 0.00in /  0mm
14:01 37.0 °F /  2.8 °C 19.6 °F /  -6.9 °C 23.54in /  797.1hPa WNW 3.7mph /  6km/h -999.0mph /  -1607.7km/h 49% 0.00in /  0mm
14:16 37.0 °F /  2.8 °C 22.3 °F /  -5.4 °C 23.53in /  796.7hPa NW 3.2mph /  5.1km/h -999.0mph /  -1607.7km/h 55% 0.00in /  0mm
14:32 35.8 °F /  2.1 °C 22.5 °F /  -5.3 °C 23.53in /  796.7hPa NW 4.7mph /  7.6km/h -999.0mph /  -1607.7km/h 58% 0.00in /  0mm
14:47 35.4 °F /  1.9 °C 22.5 °F /  -5.3 °C 23.53in /  796.7hPa NW 4.2mph /  6.8km/h -999.0mph /  -1607.7km/h 59% 0.00in /  0mm
15:02 35.6 °F /  2 °C 21.9 °F /  -5.6 °C 23.54in /  797.1hPa NNW 2.7mph /  4.3km/h -999.0mph /  -1607.7km/h 57% 0.00in /  0mm
15:17 35.4 °F /  1.9 °C 21.7 °F /  -5.7 °C 23.54in /  797.1hPa West 1.7mph /  2.7km/h -999.0mph /  -1607.7km/h 57% 0.00in /  0mm
15:32 34.9 °F /  1.6 °C 22.0 °F /  -5.6 °C 23.54in /  797.1hPa NW 2.2mph /  3.5km/h -999.0mph /  -1607.7km/h 59% 0.00in /  0mm
15:48 34.5 °F /  1.4 °C 22.4 °F /  -5.3 °C 23.54in /  797.1hPa NW 2.2mph /  3.5km/h -999.0mph /  -1607.7km/h 61% 0.00in /  0mm
16:03 33.8 °F /  1 °C 23.3 °F /  -4.8 °C 23.54in /  797.1hPa NW 2.7mph /  4.3km/h -999.0mph /  -1607.7km/h 65% 0.00in /  0mm
16:18 33.1 °F /  0.6 °C 23.3 °F /  -4.8 °C 23.54in /  797.1hPa NW 2.7mph /  4.3km/h -999.0mph /  -1607.7km/h 67% 0.00in /  0mm
16:33 32.7 °F /  0.4 °C 23.3 °F /  -4.8 °C 23.54in /  797.1hPa WNW 2.7mph /  4.3km/h -999.0mph /  -1607.7km/h 68% 0.00in /  0mm
16:48 32.4 °F /  0.2 °C 23.0 °F /  -5 °C 23.54in /  797.1hPa Calm   -999.0mph /  -1607.7km/h 68% 0.00in /  0mm
17:04 31.5 °F /  -0.3 °C 22.8 °F /  -5.1 °C 23.54in /  797.1hPa Calm   -999.0mph /  -1607.7km/h 70% 0.00in /  0mm
17:19 30.6 °F /  -0.8 °C 22.3 °F /  -5.4 °C 23.54in /  797.1hPa Calm   -999.0mph /  -1607.7km/h 71% 0.00in /  0mm
17:34 29.5 °F /  -1.4 °C 21.6 °F /  -5.8 °C 23.54in /  797.1hPa Calm   -999.0mph /  -1607.7km/h 72% 0.00in /  0mm
17:50 28.0 °F /  -2.2 °C 21.4 °F /  -5.9 °C 23.54in /  797.1hPa Calm   -999.0mph /  -1607.7km/h 76% 0.00in /  0mm
18:05 27.0 °F /  -2.8 °C 20.4 °F /  -6.4 °C 23.55in /  797.4hPa Calm   -999.0mph /  -1607.7km/h 76% 0.00in /  0mm
18:20 26.2 °F /  -3.2 °C 21.5 °F /  -5.8 °C 23.55in /  797.4hPa Calm   -999.0mph /  -1607.7km/h 82% 0.00in /  0mm
18:35 25.7 °F /  -3.5 °C 20.7 °F /  -6.3 °C 23.55in /  797.4hPa Calm   -999.0mph /  -1607.7km/h 81% 0.00in /  0mm
18:51 25.2 °F /  -3.8 °C 21.3 °F /  -5.9 °C 23.54in /  797.1hPa Calm   -999.0mph /  -1607.7km/h 85% 0.00in /  0mm
19:06 24.4 °F /  -4.2 °C 20.8 °F /  -6.2 °C 23.55in /  797.4hPa Calm   -999.0mph /  -1607.7km/h 86% 0.00in /  0mm
19:21 23.9 °F /  -4.5 °C 20.6 °F /  -6.3 °C 23.55in /  797.4hPa Calm   -999.0mph /  -1607.7km/h 87% 0.00in /  0mm
19:36 23.7 °F /  -4.6 °C 20.7 °F /  -6.3 °C 23.55in /  797.4hPa South 2.7mph /  4.3km/h -999.0mph /  -1607.7km/h 88% 0.00in /  0mm
19:52 23.5 °F /  -4.7 °C 20.7 °F /  -6.3 °C 23.55in /  797.4hPa Calm   -999.0mph /  -1607.7km/h 89% 0.00in /  0mm
20:07 23.4 °F /  -4.8 °C 20.6 °F /  -6.3 °C 23.55in /  797.4hPa Calm   -999.0mph /  -1607.7km/h 89% 0.00in /  0mm
20:22 22.6 °F /  -5.2 °C 19.8 °F /  -6.8 °C 23.55in /  797.4hPa Calm   -999.0mph /  -1607.7km/h 89% 0.00in /  0mm
20:37 23.2 °F /  -4.9 °C 20.7 °F /  -6.3 °C 23.55in /  797.4hPa Calm   -999.0mph /  -1607.7km/h 90% 0.00in /  0mm
20:52 22.6 °F /  -5.2 °C 20.1 °F /  -6.6 °C 23.56in /  797.7hPa Calm   -999.0mph /  -1607.7km/h 90% 0.00in /  0mm
21:08 22.3 °F /  -5.4 °C 19.8 °F /  -6.8 °C 23.56in /  797.7hPa South 1.7mph /  2.7km/h -999.0mph /  -1607.7km/h 90% 0.00in /  0mm
21:23 21.7 °F /  -5.7 °C 19.5 °F /  -6.9 °C 23.56in /  797.7hPa Calm   -999.0mph /  -1607.7km/h 91% 0.00in /  0mm
21:38 21.6 °F /  -5.8 °C 19.4 °F /  -7 °C 23.57in /  798.1hPa Calm   -999.0mph /  -1607.7km/h 91% 0.00in /  0mm
21:53 21.4 °F /  -5.9 °C 19.2 °F /  -7.1 °C 23.56in /  797.7hPa Calm   -999.0mph /  -1607.7km/h 91% 0.00in /  0mm
22:08 21.2 °F /  -6 °C 19.0 °F /  -7.2 °C 23.56in /  797.7hPa Calm   -999.0mph /  -1607.7km/h 91% 0.00in /  0mm
22:24 21.0 °F /  -6.1 °C 18.3 °F /  -7.6 °C 23.56in /  797.7hPa Calm   -999.0mph /  -1607.7km/h 89% 0.00in /  0mm
22:39 20.5 °F /  -6.4 °C 17.8 °F /  -7.9 °C 23.56in /  797.7hPa Calm   -999.0mph /  -1607.7km/h 89% 0.00in /  0mm
22:54 20.1 °F /  -6.6 °C 17.6 °F /  -8 °C 23.55in /  797.4hPa Calm   -999.0mph /  -1607.7km/h 90% 0.00in /  0mm
23:09 20.1 °F /  -6.6 °C 17.6 °F /  -8 °C 23.56in /  797.7hPa Calm   -999.0mph /  -1607.7km/h 90% 0.00in /  0mm
23:24 20.1 °F /  -6.6 °C 17.6 °F /  -8 °C 23.55in /  797.4hPa Calm   -999.0mph /  -1607.7km/h 90% 0.00in /  0mm
23:40 19.6 °F /  -6.9 °C 17.1 °F /  -8.3 °C 23.55in /  797.4hPa Calm   -999.0mph /  -1607.7km/h 90% 0.00in /  0mm
23:55 19.2 °F /  -7.1 °C 16.7 °F /  -8.5 °C 23.55in /  797.4hPa Calm   -999.0mph /  -1607.7km/h 90% 0.00in /  0mm
Big Bear CA Weather